sensor_id;sensor_type;location;lat;lon;timestamp;temperature;humidity
14093;DHT22;7123;49.468;10.992;2023-05-23T00:02:13;20.50;99.90
14093;DHT22;7123;49.468;10.992;2023-05-23T00:04:41;20.60;99.90
14093;DHT22;7123;49.468;10.992;2023-05-23T00:07:08;20.50;99.90
14093;DHT22;7123;49.468;10.992;2023-05-23T00:09:35;20.40;99.90
14093;DHT22;7123;49.468;10.992;2023-05-23T00:12:02;20.40;99.90
14093;DHT22;7123;49.468;10.992;2023-05-23T00:14:29;20.40;99.90
14093;DHT22;7123;49.468;10.992;2023-05-23T00:16:59;20.40;99.90
14093;DHT22;7123;49.468;10.992;2023-05-23T00:19:27;20.30;99.90
14093;DHT22;7123;49.468;10.992;2023-05-23T00:21:53;20.20;99.90
14093;DHT22;7123;49.468;10.992;2023-05-23T00:24:24;20.20;99.90
14093;DHT22;7123;49.468;10.992;2023-05-23T00:26:50;20.10;99.90
14093;DHT22;7123;49.468;10.992;2023-05-23T00:29:17;20.00;99.90
14093;DHT22;7123;49.468;10.992;2023-05-23T00:31:45;19.90;99.90
14093;DHT22;7123;49.468;10.992;2023-05-23T00:34:16;19.80;99.90
14093;DHT22;7123;49.468;10.992;2023-05-23T00:36:43;19.80;99.90
14093;DHT22;7123;49.468;10.992;2023-05-23T00:39:12;19.70;99.90
14093;DHT22;7123;49.468;10.992;2023-05-23T00:41:49;19.70;99.90
14093;DHT22;7123;49.468;10.992;2023-05-23T00:44:18;19.70;99.90
14093;DHT22;7123;49.468;10.992;2023-05-23T00:46:48;19.60;99.90
14093;DHT22;7123;49.468;10.992;2023-05-23T00:49:16;19.60;99.90
14093;DHT22;7123;49.468;10.992;2023-05-23T00:51:45;19.70;99.90
14093;DHT22;7123;49.468;10.992;2023-05-23T00:54:12;19.70;99.90
14093;DHT22;7123;49.468;10.992;2023-05-23T00:56:40;19.60;99.90
14093;DHT22;7123;49.468;10.992;2023-05-23T00:59:09;19.70;99.90
14093;DHT22;7123;49.468;10.992;2023-05-23T01:01:36;19.70;99.90
14093;DHT22;7123;49.468;10.992;2023-05-23T01:04:03;19.70;99.90
14093;DHT22;7123;49.468;10.992;2023-05-23T01:06:30;19.70;99.90
14093;DHT22;7123;49.468;10.992;2023-05-23T01:09:00;19.80;99.90
14093;DHT22;7123;49.468;10.992;2023-05-23T01:14:57;19.80;99.90
14093;DHT22;7123;49.468;10.992;2023-05-23T01:17:40;19.70;99.90
14093;DHT22;7123;49.468;10.992;2023-05-23T01:20:12;19.70;99.90
14093;DHT22;7123;49.468;10.992;2023-05-23T01:28:04;19.50;99.90
14093;DHT22;7123;49.468;10.992;2023-05-23T01:30:38;19.50;99.90
14093;DHT22;7123;49.468;10.992;2023-05-23T01:33:07;19.50;99.90
14093;DHT22;7123;49.468;10.992;2023-05-23T01:35:35;19.40;99.90
14093;DHT22;7123;49.468;10.992;2023-05-23T01:38:02;19.30;99.90
14093;DHT22;7123;49.468;10.992;2023-05-23T01:40:29;19.20;99.90
14093;DHT22;7123;49.468;10.992;2023-05-23T01:42:56;19.20;99.90
14093;DHT22;7123;49.468;10.992;2023-05-23T01:45:25;19.10;99.90
14093;DHT22;7123;49.468;10.992;2023-05-23T01:47:53;19.10;99.90
14093;DHT22;7123;49.468;10.992;2023-05-23T01:50:19;19.10;99.90
14093;DHT22;7123;49.468;10.992;2023-05-23T01:52:46;19.20;99.90
14093;DHT22;7123;49.468;10.992;2023-05-23T01:55:15;19.20;99.90
14093;DHT22;7123;49.468;10.992;2023-05-23T01:57:45;19.30;99.90
14093;DHT22;7123;49.468;10.992;2023-05-23T02:00:15;19.30;99.90
14093;DHT22;7123;49.468;10.992;2023-05-23T02:02:42;19.30;99.90
14093;DHT22;7123;49.468;10.992;2023-05-23T02:05:09;19.20;99.90
14093;DHT22;7123;49.468;10.992;2023-05-23T02:07:36;19.10;99.90
14093;DHT22;7123;49.468;10.992;2023-05-23T02:10:06;19.00;99.90
14093;DHT22;7123;49.468;10.992;2023-05-23T02:12:33;18.90;99.90
14093;DHT22;7123;49.468;10.992;2023-05-23T02:15:00;18.90;99.90
14093;DHT22;7123;49.468;10.992;2023-05-23T02:17:26;18.90;99.90
14093;DHT22;7123;49.468;10.992;2023-05-23T02:19:53;18.90;99.90
14093;DHT22;7123;49.468;10.992;2023-05-23T02:22:23;18.90;99.90
14093;DHT22;7123;49.468;10.992;2023-05-23T02:24:51;19.00;99.90
14093;DHT22;7123;49.468;10.992;2023-05-23T02:27:18;19.10;99.90
14093;DHT22;7123;49.468;10.992;2023-05-23T02:29:45;19.20;99.90
14093;DHT22;7123;49.468;10.992;2023-05-23T02:32:11;19.20;99.90
14093;DHT22;7123;49.468;10.992;2023-05-23T02:34:38;19.10;99.90
14093;DHT22;7123;49.468;10.992;2023-05-23T02:37:06;19.00;99.90
14093;DHT22;7123;49.468;10.992;2023-05-23T02:39:36;18.90;99.90
14093;DHT22;7123;49.468;10.992;2023-05-23T02:42:02;18.80;99.90
14093;DHT22;7123;49.468;10.992;2023-05-23T02:44:30;18.80;99.90
14093;DHT22;7123;49.468;10.992;2023-05-23T02:46:57;18.70;99.90
14093;DHT22;7123;49.468;10.992;2023-05-23T02:49:24;18.70;99.90
14093;DHT22;7123;49.468;10.992;2023-05-23T02:51:51;18.60;99.90
14093;DHT22;7123;49.468;10.992;2023-05-23T02:54:17;18.70;99.90
14093;DHT22;7123;49.468;10.992;2023-05-23T02:56:45;18.80;99.90
14093;DHT22;7123;49.468;10.992;2023-05-23T02:59:12;18.80;99.90
14093;DHT22;7123;49.468;10.992;2023-05-23T03:01:39;18.70;99.90
14093;DHT22;7123;49.468;10.992;2023-05-23T03:04:05;18.70;99.90
14093;DHT22;7123;49.468;10.992;2023-05-23T03:06:32;18.60;99.90
14093;DHT22;7123;49.468;10.992;2023-05-23T03:09:00;18.60;99.90
14093;DHT22;7123;49.468;10.992;2023-05-23T03:11:26;18.50;99.90
14093;DHT22;7123;49.468;10.992;2023-05-23T03:13:55;18.40;99.90
14093;DHT22;7123;49.468;10.992;2023-05-23T03:16:22;18.30;99.90
14093;DHT22;7123;49.468;10.992;2023-05-23T03:18:49;18.30;99.90
14093;DHT22;7123;49.468;10.992;2023-05-23T03:21:16;18.30;99.90
14093;DHT22;7123;49.468;10.992;2023-05-23T03:23:43;18.30;99.90
14093;DHT22;7123;49.468;10.992;2023-05-23T03:26:09;18.30;99.90
14093;DHT22;7123;49.468;10.992;2023-05-23T03:28:37;18.30;99.90
14093;DHT22;7123;49.468;10.992;2023-05-23T03:31:03;18.50;99.90
14093;DHT22;7123;49.468;10.992;2023-05-23T03:33:30;18.50;99.90
14093;DHT22;7123;49.468;10.992;2023-05-23T03:35:57;18.50;99.90
14093;DHT22;7123;49.468;10.992;2023-05-23T03:38:24;18.70;99.90
14093;DHT22;7123;49.468;10.992;2023-05-23T03:40:51;18.80;99.90
14093;DHT22;7123;49.468;10.992;2023-05-23T03:43:18;19.00;99.90
14093;DHT22;7123;49.468;10.992;2023-05-23T03:45:44;19.00;99.90
14093;DHT22;7123;49.468;10.992;2023-05-23T03:48:11;18.90;99.90
14093;DHT22;7123;49.468;10.992;2023-05-23T03:50:39;18.70;99.90
14093;DHT22;7123;49.468;10.992;2023-05-23T03:53:05;18.50;99.90
14093;DHT22;7123;49.468;10.992;2023-05-23T03:55:32;18.40;99.90
14093;DHT22;7123;49.468;10.992;2023-05-23T03:57:59;18.30;99.90
14093;DHT22;7123;49.468;10.992;2023-05-23T04:00:26;18.10;99.90
14093;DHT22;7123;49.468;10.992;2023-05-23T04:02:53;18.10;99.90
14093;DHT22;7123;49.468;10.992;2023-05-23T04:05:20;18.00;99.90
14093;DHT22;7123;49.468;10.992;2023-05-23T04:07:48;17.80;99.90
14093;DHT22;7123;49.468;10.992;2023-05-23T04:10:14;17.80;99.90
14093;DHT22;7123;49.468;10.992;2023-05-23T04:12:41;17.80;99.90
14093;DHT22;7123;49.468;10.992;2023-05-23T04:15:09;17.80;99.90
14093;DHT22;7123;49.468;10.992;2023-05-23T04:17:36;17.80;99.90
14093;DHT22;7123;49.468;10.992;2023-05-23T04:20:08;17.80;99.90
14093;DHT22;7123;49.468;10.992;2023-05-23T04:22:35;17.70;99.90
14093;DHT22;7123;49.468;10.992;2023-05-23T04:25:02;17.70;99.90
14093;DHT22;7123;49.468;10.992;2023-05-23T04:27:29;17.60;99.90
14093;DHT22;7123;49.468;10.992;2023-05-23T04:29:56;17.70;99.90
14093;DHT22;7123;49.468;10.992;2023-05-23T04:32:23;17.60;99.90
14093;DHT22;7123;49.468;10.992;2023-05-23T04:34:50;17.60;99.90
14093;DHT22;7123;49.468;10.992;2023-05-23T04:37:18;17.60;99.90
14093;DHT22;7123;49.468;10.992;2023-05-23T04:39:51;17.60;99.90
14093;DHT22;7123;49.468;10.992;2023-05-23T04:42:18;17.70;99.90
14093;DHT22;7123;49.468;10.992;2023-05-23T04:44:50;17.60;99.90
14093;DHT22;7123;49.468;10.992;2023-05-23T04:47:18;17.70;99.90
14093;DHT22;7123;49.468;10.992;2023-05-23T04:49:45;17.70;99.90
14093;DHT22;7123;49.468;10.992;2023-05-23T04:52:11;17.60;99.90
14093;DHT22;7123;49.468;10.992;2023-05-23T04:54:38;17.60;99.90
14093;DHT22;7123;49.468;10.992;2023-05-23T04:57:10;17.70;99.90
14093;DHT22;7123;49.468;10.992;2023-05-23T04:59:37;17.90;99.90
14093;DHT22;7123;49.468;10.992;2023-05-23T05:02:04;17.90;99.90
14093;DHT22;7123;49.468;10.992;2023-05-23T05:04:31;17.90;99.90
14093;DHT22;7123;49.468;10.992;2023-05-23T05:06:58;17.90;99.90
14093;DHT22;7123;49.468;10.992;2023-05-23T05:09:25;17.90;99.90
14093;DHT22;7123;49.468;10.992;2023-05-23T05:11:51;17.90;99.90
14093;DHT22;7123;49.468;10.992;2023-05-23T05:14:18;18.00;99.90
14093;DHT22;7123;49.468;10.992;2023-05-23T05:16:45;18.00;99.90
14093;DHT22;7123;49.468;10.992;2023-05-23T05:19:12;18.00;99.90
14093;DHT22;7123;49.468;10.992;2023-05-23T05:21:39;18.00;99.90
14093;DHT22;7123;49.468;10.992;2023-05-23T05:24:06;18.10;99.90
14093;DHT22;7123;49.468;10.992;2023-05-23T05:26:35;18.00;99.90
14093;DHT22;7123;49.468;10.992;2023-05-23T05:29:02;18.00;99.90
14093;DHT22;7123;49.468;10.992;2023-05-23T05:31:29;18.00;99.90
14093;DHT22;7123;49.468;10.992;2023-05-23T05:33:56;18.00;99.90
14093;DHT22;7123;49.468;10.992;2023-05-23T05:36:23;17.90;99.90
14093;DHT22;7123;49.468;10.992;2023-05-23T05:38:49;17.90;99.90
14093;DHT22;7123;49.468;10.992;2023-05-23T05:41:16;17.90;99.90
14093;DHT22;7123;49.468;10.992;2023-05-23T05:43:43;17.90;99.90
14093;DHT22;7123;49.468;10.992;2023-05-23T05:46:10;18.00;99.90
14093;DHT22;7123;49.468;10.992;2023-05-23T05:48:37;18.00;99.90
14093;DHT22;7123;49.468;10.992;2023-05-23T05:51:04;18.10;99.90
14093;DHT22;7123;49.468;10.992;2023-05-23T05:53:31;18.20;99.90
14093;DHT22;7123;49.468;10.992;2023-05-23T05:55:59;18.20;99.90
14093;DHT22;7123;49.468;10.992;2023-05-23T05:58:26;18.30;99.90
14093;DHT22;7123;49.468;10.992;2023-05-23T06:00:53;18.30;99.90
14093;DHT22;7123;49.468;10.992;2023-05-23T06:03:20;18.40;99.90
14093;DHT22;7123;49.468;10.992;2023-05-23T06:05:47;18.40;99.90
14093;DHT22;7123;49.468;10.992;2023-05-23T06:08:14;18.50;99.90
14093;DHT22;7123;49.468;10.992;2023-05-23T06:10:40;18.60;99.90
14093;DHT22;7123;49.468;10.992;2023-05-23T06:13:08;18.70;99.90
14093;DHT22;7123;49.468;10.992;2023-05-23T06:15:35;18.70;99.90
14093;DHT22;7123;49.468;10.992;2023-05-23T06:18:01;18.90;99.90
14093;DHT22;7123;49.468;10.992;2023-05-23T06:20:28;18.90;99.90
14093;DHT22;7123;49.468;10.992;2023-05-23T06:22:55;19.00;99.90
14093;DHT22;7123;49.468;10.992;2023-05-23T06:25:22;19.10;99.90
14093;DHT22;7123;49.468;10.992;2023-05-23T06:27:48;19.10;99.90
14093;DHT22;7123;49.468;10.992;2023-05-23T06:30:15;19.20;99.90
14093;DHT22;7123;49.468;10.992;2023-05-23T06:32:42;19.10;99.90
14093;DHT22;7123;49.468;10.992;2023-05-23T06:35:09;19.00;99.90
14093;DHT22;7123;49.468;10.992;2023-05-23T06:37:36;19.10;99.90
14093;DHT22;7123;49.468;10.992;2023-05-23T06:40:03;19.10;99.90
14093;DHT22;7123;49.468;10.992;2023-05-23T06:42:30;19.20;99.90
14093;DHT22;7123;49.468;10.992;2023-05-23T06:44:57;19.30;99.90
14093;DHT22;7123;49.468;10.992;2023-05-23T06:47:24;19.40;99.90
14093;DHT22;7123;49.468;10.992;2023-05-23T06:49:52;19.30;99.90
14093;DHT22;7123;49.468;10.992;2023-05-23T06:52:18;19.10;99.90
14093;DHT22;7123;49.468;10.992;2023-05-23T06:54:45;19.20;99.90
14093;DHT22;7123;49.468;10.992;2023-05-23T06:57:12;19.10;99.90
14093;DHT22;7123;49.468;10.992;2023-05-23T06:59:38;19.40;99.90
14093;DHT22;7123;49.468;10.992;2023-05-23T07:02:05;19.20;99.90
14093;DHT22;7123;49.468;10.992;2023-05-23T07:04:32;19.20;99.90
14093;DHT22;7123;49.468;10.992;2023-05-23T07:06:59;19.10;99.90
14093;DHT22;7123;49.468;10.992;2023-05-23T07:09:25;19.00;99.90
14093;DHT22;7123;49.468;10.992;2023-05-23T07:11:52;19.00;99.90
14093;DHT22;7123;49.468;10.992;2023-05-23T07:14:19;19.00;99.90
14093;DHT22;7123;49.468;10.992;2023-05-23T07:16:46;19.00;99.90
14093;DHT22;7123;49.468;10.992;2023-05-23T07:19:13;18.90;99.90
14093;DHT22;7123;49.468;10.992;2023-05-23T07:21:39;19.00;99.90
14093;DHT22;7123;49.468;10.992;2023-05-23T07:24:06;18.90;99.90
14093;DHT22;7123;49.468;10.992;2023-05-23T07:26:33;18.90;99.90
14093;DHT22;7123;49.468;10.992;2023-05-23T07:29:00;19.00;99.90
14093;DHT22;7123;49.468;10.992;2023-05-23T07:31:27;19.10;99.90
14093;DHT22;7123;49.468;10.992;2023-05-23T07:33:53;19.10;99.90
14093;DHT22;7123;49.468;10.992;2023-05-23T07:36:22;19.00;99.90
14093;DHT22;7123;49.468;10.992;2023-05-23T07:38:49;19.10;99.90
14093;DHT22;7123;49.468;10.992;2023-05-23T07:41:15;19.20;99.90
14093;DHT22;7123;49.468;10.992;2023-05-23T07:43:42;19.20;99.90
14093;DHT22;7123;49.468;10.992;2023-05-23T07:46:09;19.10;99.90
14093;DHT22;7123;49.468;10.992;2023-05-23T07:48:36;19.10;99.90
14093;DHT22;7123;49.468;10.992;2023-05-23T07:51:03;19.00;99.90
14093;DHT22;7123;49.468;10.992;2023-05-23T07:53:30;19.00;99.90
14093;DHT22;7123;49.468;10.992;2023-05-23T07:55:56;19.10;99.90
14093;DHT22;7123;49.468;10.992;2023-05-23T07:58:23;19.00;99.90
14093;DHT22;7123;49.468;10.992;2023-05-23T08:00:50;19.10;99.90
14093;DHT22;7123;49.468;10.992;2023-05-23T08:03:18;19.20;99.90
14093;DHT22;7123;49.468;10.992;2023-05-23T08:05:46;19.40;99.90
14093;DHT22;7123;49.468;10.992;2023-05-23T08:08:15;19.60;99.90
14093;DHT22;7123;49.468;10.992;2023-05-23T08:10:42;19.60;99.90
14093;DHT22;7123;49.468;10.992;2023-05-23T08:13:11;19.60;99.90
14093;DHT22;7123;49.468;10.992;2023-05-23T08:15:37;19.60;99.90
14093;DHT22;7123;49.468;10.992;2023-05-23T08:18:04;19.80;99.90
14093;DHT22;7123;49.468;10.992;2023-05-23T08:20:31;19.80;99.90
14093;DHT22;7123;49.468;10.992;2023-05-23T08:22:59;19.80;99.90
14093;DHT22;7123;49.468;10.992;2023-05-23T08:25:27;19.70;99.90
14093;DHT22;7123;49.468;10.992;2023-05-23T08:27:58;19.60;99.90
14093;DHT22;7123;49.468;10.992;2023-05-23T08:30:26;19.60;99.90
14093;DHT22;7123;49.468;10.992;2023-05-23T08:32:53;19.60;99.90
14093;DHT22;7123;49.468;10.992;2023-05-23T08:35:21;19.50;99.90
14093;DHT22;7123;49.468;10.992;2023-05-23T08:37:48;19.50;99.90
14093;DHT22;7123;49.468;10.992;2023-05-23T08:40:22;19.50;99.90
14093;DHT22;7123;49.468;10.992;2023-05-23T08:42:49;19.60;99.90
14093;DHT22;7123;49.468;10.992;2023-05-23T08:45:17;19.80;99.90
14093;DHT22;7123;49.468;10.992;2023-05-23T08:47:45;19.80;99.90
14093;DHT22;7123;49.468;10.992;2023-05-23T08:50:14;19.80;99.90
14093;DHT22;7123;49.468;10.992;2023-05-23T08:52:53;19.70;99.90
14093;DHT22;7123;49.468;10.992;2023-05-23T08:55:24;19.60;99.90
14093;DHT22;7123;49.468;10.992;2023-05-23T08:57:53;19.60;99.90
14093;DHT22;7123;49.468;10.992;2023-05-23T09:00:21;19.60;99.90
14093;DHT22;7123;49.468;10.992;2023-05-23T09:02:51;19.80;99.90
14093;DHT22;7123;49.468;10.992;2023-05-23T09:05:20;19.70;99.90
14093;DHT22;7123;49.468;10.992;2023-05-23T09:07:47;19.60;99.90
14093;DHT22;7123;49.468;10.992;2023-05-23T09:10:15;19.60;99.90
14093;DHT22;7123;49.468;10.992;2023-05-23T09:12:46;19.70;99.90
14093;DHT22;7123;49.468;10.992;2023-05-23T09:15:13;19.60;99.90
14093;DHT22;7123;49.468;10.992;2023-05-23T09:17:40;19.60;99.90
14093;DHT22;7123;49.468;10.992;2023-05-23T09:20:12;19.50;99.90
14093;DHT22;7123;49.468;10.992;2023-05-23T09:22:40;19.40;99.90
14093;DHT22;7123;49.468;10.992;2023-05-23T09:25:07;19.40;99.90
14093;DHT22;7123;49.468;10.992;2023-05-23T09:27:34;19.40;99.90
14093;DHT22;7123;49.468;10.992;2023-05-23T09:30:09;19.60;99.90
14093;DHT22;7123;49.468;10.992;2023-05-23T09:32:36;19.70;99.90
14093;DHT22;7123;49.468;10.992;2023-05-23T09:35:05;19.60;99.90
14093;DHT22;7123;49.468;10.992;2023-05-23T09:37:37;19.60;99.90
14093;DHT22;7123;49.468;10.992;2023-05-23T09:40:09;19.60;99.90
14093;DHT22;7123;49.468;10.992;2023-05-23T09:42:46;19.60;99.90
14093;DHT22;7123;49.468;10.992;2023-05-23T09:45:15;19.60;99.90
14093;DHT22;7123;49.468;10.992;2023-05-23T09:47:48;19.50;99.90
14093;DHT22;7123;49.468;10.992;2023-05-23T09:50:17;19.40;99.90
14093;DHT22;7123;49.468;10.992;2023-05-23T09:52:44;19.40;99.90
14093;DHT22;7123;49.468;10.992;2023-05-23T09:55:11;19.50;99.90
14093;DHT22;7123;49.468;10.992;2023-05-23T09:57:40;19.70;99.90
14093;DHT22;7123;49.468;10.992;2023-05-23T10:00:09;19.80;99.90
14093;DHT22;7123;49.468;10.992;2023-05-23T10:07:58;19.60;99.90
14093;DHT22;7123;49.468;10.992;2023-05-23T10:10:30;19.50;99.90
14093;DHT22;7123;49.468;10.992;2023-05-23T10:13:02;19.40;99.90
14093;DHT22;7123;49.468;10.992;2023-05-23T10:15:38;19.40;99.90
14093;DHT22;7123;49.468;10.992;2023-05-23T10:18:18;19.50;99.90
14093;DHT22;7123;49.468;10.992;2023-05-23T10:20:48;19.60;99.90
14093;DHT22;7123;49.468;10.992;2023-05-23T10:23:17;19.50;99.90
14093;DHT22;7123;49.468;10.992;2023-05-23T10:25:45;19.40;99.90
14093;DHT22;7123;49.468;10.992;2023-05-23T10:28:12;19.40;99.90
14093;DHT22;7123;49.468;10.992;2023-05-23T10:30:40;19.50;99.90
14093;DHT22;7123;49.468;10.992;2023-05-23T10:33:08;19.70;99.90
14093;DHT22;7123;49.468;10.992;2023-05-23T10:35:46;19.90;99.90
14093;DHT22;7123;49.468;10.992;2023-05-23T10:38:40;19.90;99.90
14093;DHT22;7123;49.468;10.992;2023-05-23T10:46:59;19.60;99.90
14093;DHT22;7123;49.468;10.992;2023-05-23T10:49:44;19.60;99.90
14093;DHT22;7123;49.468;10.992;2023-05-23T10:52:13;19.50;99.90
14093;DHT22;7123;49.468;10.992;2023-05-23T10:54:53;19.40;99.90
14093;DHT22;7123;49.468;10.992;2023-05-23T10:57:22;19.40;99.90
14093;DHT22;7123;49.468;10.992;2023-05-23T10:59:51;19.40;99.90
14093;DHT22;7123;49.468;10.992;2023-05-23T11:02:24;19.50;99.90
14093;DHT22;7123;49.468;10.992;2023-05-23T11:05:20;19.50;99.90
14093;DHT22;7123;49.468;10.992;2023-05-23T11:08:10;19.60;99.90
14093;DHT22;7123;49.468;10.992;2023-05-23T11:11:00;19.70;99.90
14093;DHT22;7123;49.468;10.992;2023-05-23T11:13:53;19.80;99.90
14093;DHT22;7123;49.468;10.992;2023-05-23T11:16:40;19.50;99.90
14093;DHT22;7123;49.468;10.992;2023-05-23T11:22:00;19.30;99.90
14093;DHT22;7123;49.468;10.992;2023-05-23T11:24:49;19.30;99.90
14093;DHT22;7123;49.468;10.992;2023-05-23T11:27:26;19.20;99.90
14093;DHT22;7123;49.468;10.992;2023-05-23T11:30:00;19.20;99.90
14093;DHT22;7123;49.468;10.992;2023-05-23T11:32:28;19.20;99.90
14093;DHT22;7123;49.468;10.992;2023-05-23T11:35:06;19.30;99.90
14093;DHT22;7123;49.468;10.992;2023-05-23T11:37:34;19.50;99.90
14093;DHT22;7123;49.468;10.992;2023-05-23T11:40:27;19.60;99.90
14093;DHT22;7123;49.468;10.992;2023-05-23T11:42:54;19.60;99.90
14093;DHT22;7123;49.468;10.992;2023-05-23T11:45:23;19.50;99.90
14093;DHT22;7123;49.468;10.992;2023-05-23T11:47:50;19.50;99.90
14093;DHT22;7123;49.468;10.992;2023-05-23T11:50:17;19.60;99.90
14093;DHT22;7123;49.468;10.992;2023-05-23T11:52:46;19.50;99.90
14093;DHT22;7123;49.468;10.992;2023-05-23T11:55:21;19.60;99.90
14093;DHT22;7123;49.468;10.992;2023-05-23T11:57:49;19.70;99.90
14093;DHT22;7123;49.468;10.992;2023-05-23T12:00:17;19.70;99.90
14093;DHT22;7123;49.468;10.992;2023-05-23T12:02:45;19.60;99.90
14093;DHT22;7123;49.468;10.992;2023-05-23T12:05:15;19.70;99.90
14093;DHT22;7123;49.468;10.992;2023-05-23T12:07:47;19.60;99.90
14093;DHT22;7123;49.468;10.992;2023-05-23T12:10:17;19.60;99.90
14093;DHT22;7123;49.468;10.992;2023-05-23T12:12:45;19.60;99.90
14093;DHT22;7123;49.468;10.992;2023-05-23T12:15:13;19.80;99.90
14093;DHT22;7123;49.468;10.992;2023-05-23T12:17:44;19.90;99.90
14093;DHT22;7123;49.468;10.992;2023-05-23T12:20:12;20.00;99.90
14093;DHT22;7123;49.468;10.992;2023-05-23T12:22:39;20.00;99.90
14093;DHT22;7123;49.468;10.992;2023-05-23T12:25:10;20.00;99.90
14093;DHT22;7123;49.468;10.992;2023-05-23T12:27:39;19.90;99.90
14093;DHT22;7123;49.468;10.992;2023-05-23T12:30:09;19.70;99.90
14093;DHT22;7123;49.468;10.992;2023-05-23T12:32:43;19.60;99.90
14093;DHT22;7123;49.468;10.992;2023-05-23T12:35:13;19.50;99.90
14093;DHT22;7123;49.468;10.992;2023-05-23T12:37:44;19.40;99.90
14093;DHT22;7123;49.468;10.992;2023-05-23T12:40:18;19.50;99.90
14093;DHT22;7123;49.468;10.992;2023-05-23T12:42:56;19.40;99.90
14093;DHT22;7123;49.468;10.992;2023-05-23T12:45:25;19.50;99.90
14093;DHT22;7123;49.468;10.992;2023-05-23T12:47:56;19.50;99.90
14093;DHT22;7123;49.468;10.992;2023-05-23T12:50:23;19.60;99.90
14093;DHT22;7123;49.468;10.992;2023-05-23T12:52:49;19.40;99.90
14093;DHT22;7123;49.468;10.992;2023-05-23T12:55:16;19.10;99.90
14093;DHT22;7123;49.468;10.992;2023-05-23T12:57:43;19.00;99.90
14093;DHT22;7123;49.468;10.992;2023-05-23T13:00:11;18.90;99.90
14093;DHT22;7123;49.468;10.992;2023-05-23T13:02:37;18.80;99.90
14093;DHT22;7123;49.468;10.992;2023-05-23T13:05:05;18.80;99.90
14093;DHT22;7123;49.468;10.992;2023-05-23T13:07:32;18.70;99.90
14093;DHT22;7123;49.468;10.992;2023-05-23T13:10:00;18.80;99.90
14093;DHT22;7123;49.468;10.992;2023-05-23T13:12:27;18.90;99.90
14093;DHT22;7123;49.468;10.992;2023-05-23T13:14:54;19.00;99.90
14093;DHT22;7123;49.468;10.992;2023-05-23T13:17:21;19.10;99.90
14093;DHT22;7123;49.468;10.992;2023-05-23T13:19:48;19.10;99.90
14093;DHT22;7123;49.468;10.992;2023-05-23T13:22:14;19.00;99.90
14093;DHT22;7123;49.468;10.992;2023-05-23T13:24:42;18.90;99.90
14093;DHT22;7123;49.468;10.992;2023-05-23T13:27:09;19.00;99.90
14093;DHT22;7123;49.468;10.992;2023-05-23T13:29:36;19.00;99.90
14093;DHT22;7123;49.468;10.992;2023-05-23T13:32:03;19.10;99.90
14093;DHT22;7123;49.468;10.992;2023-05-23T13:34:29;19.20;99.90
14093;DHT22;7123;49.468;10.992;2023-05-23T13:36:56;19.30;99.90
14093;DHT22;7123;49.468;10.992;2023-05-23T13:39:23;19.20;99.90
14093;DHT22;7123;49.468;10.992;2023-05-23T13:41:50;19.30;99.90
14093;DHT22;7123;49.468;10.992;2023-05-23T13:44:17;19.30;99.90
14093;DHT22;7123;49.468;10.992;2023-05-23T13:46:44;19.20;99.90
14093;DHT22;7123;49.468;10.992;2023-05-23T13:49:10;19.40;99.90
14093;DHT22;7123;49.468;10.992;2023-05-23T13:51:37;19.60;99.90
14093;DHT22;7123;49.468;10.992;2023-05-23T13:54:04;19.80;99.90
14093;DHT22;7123;49.468;10.992;2023-05-23T13:56:31;19.80;99.90
14093;DHT22;7123;49.468;10.992;2023-05-23T13:59:00;19.80;99.90
14093;DHT22;7123;49.468;10.992;2023-05-23T14:01:26;19.90;99.90
14093;DHT22;7123;49.468;10.992;2023-05-23T14:03:54;19.80;99.90
14093;DHT22;7123;49.468;10.992;2023-05-23T14:06:20;19.70;99.90
14093;DHT22;7123;49.468;10.992;2023-05-23T14:08:47;19.60;99.90
14093;DHT22;7123;49.468;10.992;2023-05-23T14:11:14;19.50;99.90
14093;DHT22;7123;49.468;10.992;2023-05-23T14:13:40;19.50;99.90
14093;DHT22;7123;49.468;10.992;2023-05-23T14:18:34;19.50;99.90
14093;DHT22;7123;49.468;10.992;2023-05-23T14:21:01;19.30;99.90
14093;DHT22;7123;49.468;10.992;2023-05-23T14:23:28;19.30;99.90
14093;DHT22;7123;49.468;10.992;2023-05-23T14:25:55;19.40;99.90
14093;DHT22;7123;49.468;10.992;2023-05-23T14:28:21;19.50;99.90
14093;DHT22;7123;49.468;10.992;2023-05-23T14:30:48;19.40;99.90
14093;DHT22;7123;49.468;10.992;2023-05-23T14:33:15;19.30;99.90
14093;DHT22;7123;49.468;10.992;2023-05-23T14:35:42;19.20;99.90
14093;DHT22;7123;49.468;10.992;2023-05-23T14:38:09;19.10;99.90
14093;DHT22;7123;49.468;10.992;2023-05-23T14:40:36;19.10;99.90
14093;DHT22;7123;49.468;10.992;2023-05-23T14:43:02;19.00;99.90
14093;DHT22;7123;49.468;10.992;2023-05-23T14:45:30;19.00;99.90
14093;DHT22;7123;49.468;10.992;2023-05-23T14:47:57;18.90;99.90
14093;DHT22;7123;49.468;10.992;2023-05-23T14:50:25;18.90;99.90
14093;DHT22;7123;49.468;10.992;2023-05-23T14:52:52;19.00;99.90
14093;DHT22;7123;49.468;10.992;2023-05-23T14:55:18;19.00;99.90
14093;DHT22;7123;49.468;10.992;2023-05-23T14:57:45;19.10;99.90
14093;DHT22;7123;49.468;10.992;2023-05-23T15:00:12;19.20;99.90
14093;DHT22;7123;49.468;10.992;2023-05-23T15:02:39;19.50;99.90
14093;DHT22;7123;49.468;10.992;2023-05-23T15:05:06;19.70;99.90
14093;DHT22;7123;49.468;10.992;2023-05-23T15:07:34;19.70;99.90
14093;DHT22;7123;49.468;10.992;2023-05-23T15:10:01;19.80;99.90
14093;DHT22;7123;49.468;10.992;2023-05-23T15:12:28;19.70;99.90
14093;DHT22;7123;49.468;10.992;2023-05-23T15:15:18;19.60;99.90
14093;DHT22;7123;49.468;10.992;2023-05-23T15:17:49;19.50;99.90
14093;DHT22;7123;49.468;10.992;2023-05-23T15:20:16;19.40;99.90
14093;DHT22;7123;49.468;10.992;2023-05-23T15:22:43;19.40;99.90
14093;DHT22;7123;49.468;10.992;2023-05-23T15:25:10;19.40;99.90
14093;DHT22;7123;49.468;10.992;2023-05-23T15:27:36;19.40;99.90
14093;DHT22;7123;49.468;10.992;2023-05-23T15:30:12;19.60;99.90
14093;DHT22;7123;49.468;10.992;2023-05-23T15:32:39;19.60;99.90
14093;DHT22;7123;49.468;10.992;2023-05-23T15:35:06;19.60;99.90
14093;DHT22;7123;49.468;10.992;2023-05-23T15:37:33;19.40;99.90
14093;DHT22;7123;49.468;10.992;2023-05-23T15:39:59;19.20;99.90
14093;DHT22;7123;49.468;10.992;2023-05-23T15:42:27;19.10;99.90
14093;DHT22;7123;49.468;10.992;2023-05-23T15:44:54;19.00;99.90
14093;DHT22;7123;49.468;10.992;2023-05-23T15:47:21;19.00;99.90
14093;DHT22;7123;49.468;10.992;2023-05-23T15:49:48;18.90;99.90
14093;DHT22;7123;49.468;10.992;2023-05-23T15:52:14;19.00;99.90
14093;DHT22;7123;49.468;10.992;2023-05-23T15:54:41;18.80;99.90
14093;DHT22;7123;49.468;10.992;2023-05-23T15:57:08;18.80;99.90
14093;DHT22;7123;49.468;10.992;2023-05-23T15:59:35;18.80;99.90
14093;DHT22;7123;49.468;10.992;2023-05-23T16:02:03;18.70;99.90
14093;DHT22;7123;49.468;10.992;2023-05-23T16:04:32;18.60;99.90